createdAt,value
2022-08-21T00:03:26.155Z,989.6
2022-08-21T00:07:42.702Z,989.6
2022-08-21T00:11:59.218Z,989.7
2022-08-21T00:15:58.533Z,989.6
2022-08-21T00:24:31.589Z,989.6
2022-08-21T00:32:08.256Z,989.5
2022-08-21T00:37:16.623Z,989.5
2022-08-21T00:45:49.705Z,989.5
2022-08-21T00:53:14.239Z,989.4
2022-08-21T00:58:33.566Z,989.3
2022-08-21T01:03:52.547Z,989.3
2022-08-21T01:09:10.664Z,989.4
2022-08-21T01:14:30.188Z,989.4
2022-08-21T01:19:49.545Z,989.3
2022-08-21T01:25:08.303Z,989.4
2022-08-21T01:30:27.103Z,989.3
2022-08-21T01:35:46.083Z,989.4
2022-08-21T01:42:20.204Z,989.4
2022-08-21T01:46:47.801Z,989.3
2022-08-21T01:55:09.839Z,989.4
2022-08-21T02:02:24.362Z,989.3
2022-08-21T02:07:43.337Z,989.3
2022-08-21T02:13:02.166Z,989.3
2022-08-21T02:18:21.103Z,989.2
2022-08-21T02:23:40.263Z,989.2
2022-08-21T02:28:59.469Z,989.3
2022-08-21T02:37:32.538Z,989.2
2022-08-21T02:39:37.826Z,989.2
2022-08-21T02:44:57.171Z,989.2
2022-08-21T02:50:16.251Z,989.2
2022-08-21T02:55:35.536Z,989.2
2022-08-21T03:01:04.458Z,989.2
2022-08-21T03:06:12.768Z,989.2
2022-08-21T03:11:31.799Z,989.2
2022-08-21T03:16:50.541Z,989.2
2022-08-21T03:22:10.186Z,989.2
2022-08-21T03:27:29.871Z,989.2
2022-08-21T03:32:48.607Z,989.3
2022-08-21T03:39:22.786Z,989.4
2022-08-21T03:43:27.999Z,989.3
2022-08-21T03:48:47.217Z,989.4
2022-08-21T03:54:06.720Z,989.5
2022-08-21T03:59:26.118Z,989.5
2022-08-21T04:04:45.367Z,989.5
2022-08-21T04:10:04.793Z,989.6
2022-08-21T04:15:23.565Z,989.7
2022-08-21T04:20:43.201Z,989.7
2022-08-21T04:26:02.732Z,989.8
2022-08-21T04:34:35.789Z,989.9
2022-08-21T04:41:59.298Z,989.9
2022-08-21T04:47:18.152Z,989.9
2022-08-21T04:52:37.826Z,990
2022-08-21T04:59:11.979Z,990
2022-08-21T05:03:16.881Z,990.1
2022-08-21T05:11:49.942Z,990.2
2022-08-21T05:13:57.022Z,990.2
2022-08-21T05:19:14.266Z,990.2
2022-08-21T05:25:48.397Z,990.2
2022-08-21T05:29:54.604Z,990.1
2022-08-21T05:35:13.561Z,990.2
2022-08-21T05:40:32.792Z,990.1
2022-08-21T05:46:03.498Z,990.1
2022-08-21T05:51:11.046Z,990.2
2022-08-21T05:56:30.611Z,990.1
2022-08-21T06:01:49.727Z,990
2022-08-21T06:07:08.873Z,990
2022-08-21T06:12:27.599Z,990
2022-08-21T06:17:47.167Z,990
2022-08-21T06:23:06.329Z,990
2022-08-21T06:31:51.396Z,990
2022-08-21T06:35:55.923Z,990
2022-08-21T06:39:06.693Z,990
2022-08-21T06:44:22.987Z,990
2022-08-21T06:49:42.257Z,990
2022-08-21T06:55:01.442Z,990
2022-08-21T07:00:21.125Z,990
2022-08-21T07:08:54.173Z,989.9
2022-08-21T07:17:27.215Z,989.9
2022-08-21T07:26:56.299Z,989.9
2022-08-21T07:32:19.560Z,989.9
2022-08-21T07:37:35.346Z,989.8
2022-08-21T07:42:54.760Z,989.7
2022-08-21T07:51:27.738Z,989.7
2022-08-21T08:00:11.816Z,989.5
2022-08-21T08:09:29.724Z,989.5
2022-08-21T08:18:02.755Z,989.4
2022-08-21T08:30:46.155Z,989.3
2022-08-21T08:39:26.278Z,989.2
2022-08-21T08:52:02.677Z,989.1
2022-08-21T08:57:21.502Z,989.1
2022-08-21T09:02:40.434Z,989.1
2022-08-21T09:07:59.886Z,989.1
2022-08-21T09:13:19.491Z,989.1
2022-08-21T09:18:38.764Z,989
2022-08-21T09:23:58.197Z,988.9
2022-08-21T09:29:17.553Z,988.9
2022-08-21T09:34:36.538Z,988.9
2022-08-21T09:39:56.179Z,988.8
2022-08-21T09:48:32.673Z,988.8
2022-08-21T09:55:52.665Z,988.7
2022-08-21T10:04:25.753Z,988.7
2022-08-21T10:11:49.321Z,988.6
2022-08-21T10:20:22.426Z,988.6
2022-08-21T10:28:55.451Z,988.5
2022-08-21T10:33:11.987Z,988.4
2022-08-21T10:38:46.665Z,988.4
2022-08-21T10:43:44.894Z,988.4
2022-08-21T10:49:04.508Z,988.3
2022-08-21T10:54:23.754Z,988.4
2022-08-21T11:02:56.816Z,988.3
2022-08-21T11:15:40.506Z,988.2
2022-08-21T11:20:59.920Z,988.1
2022-08-21T11:29:32.989Z,988
2022-08-21T11:42:25.561Z,987.9
2022-08-21T11:47:34.671Z,987.9
2022-08-21T11:52:54.238Z,987.9
2022-08-21T11:58:13.128Z,987.8
2022-08-21T12:03:32.168Z,987.7
2022-08-21T12:08:51.603Z,987.7
2022-08-21T12:14:10.751Z,987.7
2022-08-21T12:19:29.548Z,987.7
2022-08-21T12:24:48.631Z,987.7
2022-08-21T12:30:07.411Z,987.7
2022-08-21T12:35:26.845Z,987.7
2022-08-21T12:43:59.911Z,987.6
2022-08-21T12:56:42.628Z,987.4
2022-08-21T13:02:01.837Z,987.4
2022-08-21T13:07:20.607Z,987.3
2022-08-21T13:12:51.685Z,987.3
2022-08-21T13:21:12.673Z,987.3
2022-08-21T13:25:29.385Z,987.3
2022-08-21T13:30:02.130Z,987.3
2022-08-21T13:39:16.196Z,987.3
2022-08-21T13:44:35.324Z,987.3
2022-08-21T13:49:58.580Z,987.3
2022-08-21T13:55:14.118Z,987.2
2022-08-21T14:00:33.093Z,987.2
2022-08-21T14:06:19.933Z,987.2
2022-08-21T14:14:53.005Z,987.2
2022-08-21T14:16:57.680Z,987.2
2022-08-21T14:27:35.869Z,987.2
2022-08-21T14:32:54.843Z,987.1
2022-08-21T14:38:13.763Z,987.1
2022-08-21T14:43:43.931Z,987
2022-08-21T14:48:52.278Z,987
2022-08-21T14:57:25.357Z,986.9
2022-08-21T14:59:29.946Z,986.9
2022-08-21T15:04:49.558Z,986.8
2022-08-21T15:10:09.400Z,986.7
2022-08-21T15:15:28.709Z,986.8
2022-08-21T15:20:48.015Z,986.8
2022-08-21T15:26:07.356Z,986.7
2022-08-21T15:31:26.626Z,986.6
2022-08-21T15:36:46.122Z,986.6
2022-08-21T15:45:19.187Z,986.6
2022-08-21T15:53:52.218Z,986.5
2022-08-21T15:58:08.776Z,986.5
2022-08-21T16:03:21.914Z,986.5
2022-08-21T16:08:41.277Z,986.5
2022-08-21T16:14:00.270Z,986.5
2022-08-21T16:19:19.886Z,986.5
2022-08-21T16:24:49.358Z,986.5
2022-08-21T16:29:58.934Z,986.5
2022-08-21T16:35:17.943Z,986.4
2022-08-21T16:40:36.980Z,986.4
2022-08-21T16:49:42.461Z,986.3
2022-08-21T16:58:15.541Z,986.4
2022-08-21T17:02:32.060Z,986.4
2022-08-21T17:07:13.144Z,986.4
2022-08-21T17:12:32.449Z,986.4
2022-08-21T17:17:51.433Z,986.4
2022-08-21T17:26:24.498Z,986.4
2022-08-21T17:30:41.039Z,986.5
2022-08-21T17:33:48.821Z,986.4
2022-08-21T17:39:07.873Z,986.4
2022-08-21T17:44:27.419Z,986.4
2022-08-21T17:49:46.351Z,986.4
2022-08-21T17:55:05.252Z,986.4
2022-08-21T18:00:24.858Z,986.4
2022-08-21T18:08:57.891Z,986.5
2022-08-21T18:13:14.412Z,986.5
2022-08-21T18:16:22.577Z,986.6
2022-08-21T18:21:41.600Z,986.6
2022-08-21T18:27:00.689Z,986.7
2022-08-21T18:32:29.642Z,986.7
2022-08-21T18:37:39.530Z,986.7
2022-08-21T18:42:59.083Z,986.7
2022-08-21T18:48:17.961Z,986.9
2022-08-21T18:53:36.960Z,986.8
2022-08-21T18:58:56.245Z,986.9
2022-08-21T19:04:25.399Z,986.9
2022-08-21T19:09:34.592Z,987
2022-08-21T19:14:53.528Z,987.1
2022-08-21T19:20:25.161Z,987.1
2022-08-21T19:25:33.117Z,987.1
2022-08-21T19:31:02.156Z,987.1
2022-08-21T19:36:10.243Z,987.2
2022-08-21T19:41:29.022Z,987.2
2022-08-21T19:46:49.915Z,987.3
2022-08-21T19:52:12.894Z,987.3
2022-08-21T19:57:26.304Z,987.3
2022-08-21T20:02:47.984Z,987.3
2022-08-21T20:08:04.928Z,987.3
2022-08-21T20:13:23.730Z,987.4
2022-08-21T20:18:43.287Z,987.4
2022-08-21T20:27:28.376Z,987.4
2022-08-21T20:31:44.920Z,987.4
2022-08-21T20:35:49.460Z,987.4
2022-08-21T20:39:59.406Z,987.4
2022-08-21T20:45:29.335Z,987.4
2022-08-21T20:50:37.345Z,987.5
2022-08-21T20:56:09.410Z,987.6
2022-08-21T21:04:29.385Z,987.5
2022-08-21T21:08:46.606Z,987.5
2022-08-21T21:11:53.998Z,987.5
2022-08-21T21:17:13.206Z,987.4
2022-08-21T21:22:32.364Z,987.4
2022-08-21T21:27:51.189Z,987.5
2022-08-21T21:36:24.231Z,987.5
2022-08-21T21:40:40.734Z,987.6
2022-08-21T21:54:27.491Z,987.6
2022-08-21T21:59:46.420Z,987.5
2022-08-21T22:12:42.258Z,987.5
2022-08-21T22:15:44.615Z,987.7
2022-08-21T22:26:22.480Z,987.7
2022-08-21T22:31:41.911Z,987.7
2022-08-21T22:37:00.907Z,987.7
2022-08-21T22:42:19.965Z,987.7
2022-08-21T22:47:39.409Z,987.7
2022-08-21T22:56:12.446Z,987.7
2022-08-21T23:00:28.970Z,987.7
2022-08-21T23:04:57.519Z,987.8
2022-08-21T23:14:15.887Z,987.7
2022-08-21T23:22:48.950Z,987.7
2022-08-21T23:30:13.757Z,987.7
2022-08-21T23:35:32.804Z,987.7
2022-08-21T23:40:51.959Z,987.7
2022-08-21T23:46:11.348Z,987.7
2022-08-21T23:51:33.658Z,987.7
2022-08-21T23:56:50.092Z,987.7
